Aérodrome :
LOGIN :

S'inscrire | Disclaimer

   EN    FR    IT 

 










Légende :    VFR   VFR Marginal   IFR   IFR Intensif   IFR Très Intensif
Visi : 
Plafond : 
>= 8 km
>= 3000ft
5 à 8 km
1000 à 3000 ft
1500m à 5 km
500 à 1000 ft
800 à 1500m
200 à 500 ft
< 800m
< 200 ft
Symboles :   Orages  Brouillard  Fortes neiges  Fortes précipitations  Vent > 20 kt
SIGMETs :   Divers  Orages  Givrage  Turbulence  Onde Orograph.  Cendres Volcan.






- Altitude de l'aérodrome : 38 ft
- Code IATA : BOH


EGHH - Bournemouth

DERNIER METAR :
  • 220850Z 30011KT 260V350 9999 SCT028 18/12 Q1013

METARs EXPIRÉS :
  • 220820Z 30010KT 260V340 9999 SCT024 17/12 Q1013
  • 220750Z 28010KT 250V310 9999 FEW020 17/12 Q1013
  • 220720Z 29009KT 9999 FEW010 SCT014 16/13 Q1012
  • 220650Z 28008KT 250V310 9999 FEW012 FEW016 15/13 Q1012
  • 220620Z 26006KT 9999 FEW011 SCT013 BKN049 15/14 Q1012
  • 220550Z 25005KT 9999 FEW010 SCT013 BKN045 14/14 Q1012
  • 220520Z 25005KT 9999 FEW008 BKN030 14/13 Q1011
  • 220450Z 25005KT 9999 FEW008 BKN025 14/13 Q1011

TAF TAF EGHH
Valide du 22 à 09h jusqu'au 22 à 18h UTC


220758Z 2209/2218 30007KT 9999 FEW020
BECMG 2214/2217 24010KT
ATIS : +44 1202 364 151
Météo : +44 1202 364 158 (TAF)



MET'MAP, la Météo Aéronautique d'un coup d'oeil ! - Copyright ORBIFLY Décembre 2007 - Disclaimer

ORBIFLY MET'MAP TEAM :

Programmation & Développement : Alexandra Zaïnal
Sur une idée originale de : Baudouin d'Aumeries
Soutien technique & logistique : Manuel Goepfert
Assistance : Marc-Olivier Méhu




SOURCES & CREDITS :

   NOAA